Latest Weather Observations for Ngayawili (Elcho Island)

IDD60801

Issued at 11:35 pm CST Monday 28 July 2014 (issued every 30 minutes, with the page automatically refreshed every 10 minutes)

About weather observations | Map of weather stations | Latest weather observations for NT | Other Formats
Station Details ID: 014517 Name: NGAYAWILI Lat: -12.00 Lon: 135.57 Height: 8.1 m
Data from the previous 72 hours. | See also: Recent months at Ngayawili (Elcho Island)
Date/Time
CST
Temp
°C
App
Temp
°C
Dew
Point
Rel
Hum
%
Delta-T
°C
Wind Press
QNH
hPa
Press
MSL
hPa
Rain
since 9 am
mm
Dir
 
Spd
km/h
Gust
km/h
Spd
kts
Gust
kts
28/11:30pm 22.6 24.9 20.7 89 1.2 SE 9 15 5 8 1016.2 - 0.0
28/11:00pm 22.9 24.8 20.6 87 1.5 ESE 11 17 6 9 1016.3 - 0.0
28/10:30pm 23.2 24.6 20.3 84 1.9 ESE 13 22 7 12 1016.2 - 0.0
28/10:00pm 23.6 24.6 20.3 82 2.1 ESE 15 22 8 12 1016.4 - 0.0
28/09:30pm 23.8 24.4 19.5 77 2.8 ESE 15 24 8 13 1016.2 - 0.0
28/09:00pm 23.7 24.6 18.4 72 3.3 ESE 11 15 6 8 1016.0 1015.9 0.0
28/08:30pm 24.1 25.1 17.8 68 3.9 ESE 9 15 5 8 1015.9 - 0.0
28/08:00pm 24.6 25.5 18.5 69 3.9 ESE 11 20 6 11 1015.4 - 0.0
28/07:30pm 24.9 26.1 19.0 69 3.8 ESE 11 15 6 8 1015.1 - 0.0
28/07:00pm 25.4 26.5 18.8 67 4.2 ESE 11 15 6 8 1014.6 - 0.0
28/06:30pm 25.9 26.5 18.6 64 4.6 ESE 13 20 7 11 1014.0 - 0.0
28/06:00pm 26.8 26.9 18.4 60 5.3 ESE 15 24 8 13 1013.5 1013.4 0.0
28/05:30pm 27.6 28.0 18.9 59 5.6 ESE 15 24 8 13 1013.2 - 0.0
28/05:00pm 28.0 27.8 18.4 56 6.1 ESE 17 30 9 16 1012.9 - 0.0
28/04:30pm 28.7 28.5 19.3 56 6.1 ESE 19 28 10 15 1012.7 - 0.0
28/04:00pm 29.2 30.4 20.6 59 5.7 ESE 15 28 8 15 1012.5 - 0.0
28/03:30pm 28.8 29.0 20.5 61 5.5 E 20 30 11 16 1012.6 - 0.0
28/03:00pm 28.7 30.4 21.7 66 4.7 E 15 26 8 14 1013.0 1012.9 0.0
28/02:30pm 27.9 31.3 23.3 76 3.1 NE 11 19 6 10 1013.3 - 0.0
28/02:00pm 27.0 29.2 22.6 77 3.0 NE 15 20 8 11 1013.9 - 0.0
28/01:30pm 28.7 30.0 21.7 66 4.7 E 17 32 9 17 1014.1 - 0.0
28/01:00pm 28.0 29.9 22.0 70 4.0 E 15 28 8 15 1014.6 - 0.0
28/12:30pm 27.7 29.2 22.0 71 3.8 E 17 26 9 14 1015.1 - 0.0
28/12:00pm 27.1 28.3 22.1 74 3.4 E 19 32 10 17 1015.8 1015.7 0.0
28/11:30am 27.2 27.5 21.5 71 3.8 E 22 39 12 21 1016.1 - 0.0
28/11:00am 28.2 29.5 21.7 68 4.4 ESE 17 28 9 15 1016.3 - 0.0
28/10:30am 27.2 27.9 21.2 69 4.0 E 19 30 10 16 1016.5 - 0.0
28/10:00am 26.4 27.1 21.2 73 3.4 E 19 33 10 18 1016.8 - 0.0
28/09:30am 25.9 27.2 21.6 77 2.9 ESE 17 28 9 15 1016.5 - 0.0
28/09:00am 24.9 26.2 21.6 82 2.2 ESE 17 28 9 15 1016.4 1016.3 0.0
28/08:30am 23.8 25.4 21.5 87 1.5 SE 15 26 8 14 1016.2 - 0.0
28/08:00am 22.8 24.8 21.6 93 0.8 SE 13 26 7 14 1016.1 - 0.0
28/07:30am 21.7 24.6 21.7 100 0.0 SE 9 13 5 7 1015.8 - 0.0
28/07:00am 20.9 23.3 20.9 100 0.0 SE 9 20 5 11 1015.5 - 0.0
28/06:30am 20.8 23.2 20.8 100 0.0 SSE 9 13 5 7 1015.3 - 0.0
28/06:00am 20.9 23.0 20.9 100 0.0 SSE 11 13 6 7 1014.9 1014.8 0.0
28/05:30am 21.3 23.1 21.1 99 0.1 SE 13 20 7 11 1014.7 - 0.0
28/05:00am 21.4 23.6 21.1 98 0.2 SSE 11 19 6 10 1014.6 - 0.0
28/04:30am 21.5 23.3 21.2 98 0.2 SE 13 20 7 11 1014.3 - 0.0
28/04:00am 21.6 23.5 21.3 98 0.2 SE 13 17 7 9 1014.3 - 0.0
28/03:30am 21.7 23.6 21.4 98 0.2 SE 13 20 7 11 1014.5 - 0.0
28/03:00am 21.9 23.9 21.6 98 0.2 SE 13 20 7 11 1014.6 1014.5 0.0
28/02:30am 22.0 24.1 21.7 98 0.2 SE 13 28 7 15 1015.0 - 0.0
28/02:00am 22.2 24.2 21.5 96 0.5 SE 13 20 7 11 1015.2 - 0.0
28/01:30am 22.5 24.1 21.5 94 0.7 SE 15 22 8 12 1015.5 - 0.0
28/01:00am 22.7 24.4 21.7 94 0.7 ESE 15 24 8 13 1016.1 - 0.0
28/12:30am 22.9 25.0 21.7 93 0.8 SE 13 26 7 14 1016.3 - 0.0
28/12:00am 23.0 24.9 21.4 91 1.1 SE 13 24 7 13 1016.3 1016.2 0.0
 
Date/Time
CST
Temp
°C
App
Temp
°C
Dew
Point
Rel
Hum
%
Delta-T
°C
Wind Press
QNH
hPa
Press
MSL
hPa
Rain
since 9 am
mm
Dir
 
Spd
km/h
Gust
km/h
Spd
kts
Gust
kts
27/11:30pm 23.1 26.0 21.7 92 0.9 SE 9 13 5 7 1016.4 - 0.0
27/11:00pm 23.5 26.1 21.9 91 1.1 SE 11 19 6 10 1016.4 - 0.0
27/10:30pm 23.9 25.4 22.0 89 1.3 SE 17 26 9 14 1016.4 - 0.0
27/10:00pm 24.1 25.9 21.8 87 1.5 SE 15 28 8 15 1016.4 - 0.0
27/09:30pm 24.5 26.2 21.6 84 1.9 ESE 15 26 8 14 1016.2 - 0.0
27/09:00pm 24.9 26.3 21.0 79 2.6 ESE 15 22 8 12 1015.9 1015.8 0.0
27/08:30pm 25.2 26.0 20.7 76 2.9 ESE 17 28 9 15 1015.7 - 0.0
27/08:00pm 25.3 27.3 20.8 76 3.0 ESE 11 19 6 10 1015.4 - 0.0
27/07:30pm 25.6 27.5 20.6 74 3.3 ESE 11 19 6 10 1015.0 - 0.0
27/07:00pm 26.0 27.9 20.6 72 3.5 ESE 11 20 6 11 1014.8 - 0.0
27/06:30pm 26.6 28.0 20.4 69 4.1 E 13 20 7 11 1014.4 - 0.0
27/06:00pm 27.4 29.0 20.7 67 4.4 ESE 13 20 7 11 1013.9 1013.8 0.0
27/05:30pm 28.2 29.8 20.7 63 5.0 E 13 22 7 12 1013.6 - 0.0
27/05:00pm 28.7 29.8 20.4 60 5.5 E 15 28 8 15 1013.5 - 0.0
27/04:30pm 29.3 30.5 20.7 59 5.7 E 15 24 8 13 1013.3 - 0.0
27/04:00pm 30.1 31.3 20.6 56 6.3 E 15 30 8 16 1013.2 - 0.0
27/03:30pm 29.6 30.4 20.7 58 5.9 E 17 30 9 16 1013.1 - 0.0
27/03:00pm 29.9 30.2 20.7 57 6.1 E 20 32 11 17 1013.3 1013.2 0.0
27/02:30pm 30.4 30.9 20.9 57 6.3 E 19 35 10 19 1013.7 - 0.0
27/02:00pm 30.0 30.9 20.8 57 6.1 E 17 26 9 14 1014.0 - 0.0
27/01:30pm 29.5 29.9 20.9 60 5.7 E 20 37 11 20 1014.6 - 0.0
27/01:00pm 29.2 29.8 21.4 63 5.2 ESE 20 33 11 18 1015.1 - 0.0
27/12:30pm 29.1 31.1 22.3 66 4.6 E 15 28 8 15 1015.7 - 0.0
27/12:00pm 28.5 29.2 21.5 66 4.7 ESE 20 33 11 18 1016.2 1016.1 0.0
27/11:30am 28.5 30.0 21.3 65 4.8 ESE 15 24 8 13 1016.5 - 0.0
27/11:00am 28.4 30.8 22.2 69 4.2 ESE 13 24 7 13 1016.9 - 0.0
27/10:30am 27.8 28.8 21.8 70 4.0 SE 19 32 10 17 1017.0 - 0.0
27/10:00am 26.7 28.1 21.9 75 3.2 E 17 30 9 16 1017.2 - 0.0
27/09:30am 25.3 28.1 23.0 87 1.6 ESE 13 19 7 10 1017.3 - 0.0
27/09:00am 24.8 27.9 23.6 93 0.8 ESE 13 19 7 10 1017.4 1017.3 0.0
27/08:30am 23.1 26.3 23.1 100 0.0 ESE 11 17 6 9 1017.2 - 0.0
27/08:00am 22.0 25.4 22.0 100 0.0 SE 7 13 4 7 1016.8 - 0.0
27/07:30am 21.2 24.2 21.2 100 0.0 SE 7 11 4 6 1016.6 - 0.0
27/07:00am 21.2 24.2 21.2 100 0.0 SE 7 11 4 6 1016.1 - 0.0
27/06:30am 21.2 24.2 21.2 100 0.0 SE 7 11 4 6 1016.0 - 0.0
27/06:00am 21.3 24.0 21.3 100 0.0 SE 9 11 5 6 1015.9 1015.8 0.0
27/05:30am 21.5 23.9 21.5 100 0.0 SE 11 19 6 10 1015.8 - 0.0
27/05:00am 21.2 23.8 21.2 100 0.0 SE 9 15 5 8 1015.5 - 0.0
27/04:30am 20.9 23.7 20.9 100 0.0 SE 7 11 4 6 1015.5 - 0.0
27/04:00am 20.8 23.6 20.8 100 0.0 SE 7 11 4 6 1015.4 - 0.0
27/03:30am 20.6 23.5 20.6 100 0.0 SE 6 7 3 4 1015.5 - 0.0
27/03:00am 20.4 23.2 20.4 100 0.0 SE 6 7 3 4 1015.7 1015.6 0.0
27/02:30am 20.9 23.9 20.9 100 0.0 SE 6 7 3 4 1016.0 - 0.0
27/02:00am 21.5 24.8 21.5 100 0.0 SE 6 7 3 4 1016.6 - 0.0
27/01:30am 22.2 24.8 22.0 99 0.1 SE 11 13 6 7 1016.7 - 0.0
27/01:00am 22.4 25.5 22.1 98 0.2 SSE 9 13 5 7 1017.0 - 0.0
27/12:30am 22.7 25.7 22.0 96 0.5 SE 9 15 5 8 1017.1 - 0.0
27/12:00am 23.0 25.7 22.2 95 0.5 SE 11 15 6 8 1017.1 1017.0 0.0
 
Date/Time
CST
Temp
°C
App
Temp
°C
Dew
Point
Rel
Hum
%
Delta-T
°C
Wind Press
QNH
hPa
Press
MSL
hPa
Rain
since 9 am
mm
Dir
 
Spd
km/h
Gust
km/h
Spd
kts
Gust
kts
26/11:30pm 23.2 25.8 22.0 93 0.8 ESE 11 17 6 9 1017.2 - 0.0
26/11:00pm 23.4 25.6 21.8 91 1.1 ESE 13 22 7 12 1017.5 - 0.0
26/10:30pm 23.7 25.7 21.6 88 1.4 ESE 13 20 7 11 1017.6 - 0.0
26/10:00pm 23.9 25.9 21.6 87 1.5 ESE 13 20 7 11 1017.5 - 0.0
26/09:30pm 24.1 26.0 21.4 85 1.8 ESE 13 19 7 10 1017.6 - 0.0
26/09:00pm 24.4 26.4 21.5 84 1.9 ESE 13 20 7 11 1017.5 1017.4 0.0
26/08:30pm 24.5 26.1 21.4 83 2.0 ESE 15 22 8 12 1017.4 - 0.0
26/08:00pm 24.7 26.0 20.8 79 2.6 E 15 24 8 13 1017.1 - 0.0
26/07:30pm 25.0 26.2 20.7 77 2.8 ESE 15 26 8 14 1016.9 - 0.0
26/07:00pm 25.0 26.8 21.1 79 2.6 ESE 13 24 7 13 1016.7 - 0.0
26/06:30pm 25.3 27.5 21.8 81 2.3 E 13 28 7 15 1016.4 - 0.0
26/06:00pm 25.6 28.5 21.7 79 2.6 E 9 15 5 8 1016.1 1016.0 0.0
26/05:30pm 26.0 28.5 21.7 77 2.9 E 11 20 6 11 1015.8 - 0.0
26/05:00pm 25.9 28.1 22.6 82 2.2 E 15 24 8 13 1015.5 - 0.0
26/04:30pm 25.0 28.5 23.6 92 1.0 E 11 19 6 10 1015.3 - 0.0
26/04:00pm 25.5 26.7 21.4 78 2.7 E 17 35 9 19 1015.2 - 0.0
26/03:30pm 28.0 29.5 22.0 70 4.0 E 17 26 9 14 1014.6 - 0.0
26/03:00pm 28.6 30.2 22.1 68 4.4 E 17 28 9 15 1014.5 1014.4 0.0
26/02:30pm 29.2 30.8 22.2 66 4.7 ENE 17 26 9 14 1014.6 - 0.0
26/02:00pm 28.6 30.0 21.9 67 4.5 E 17 28 9 15 1014.8 - 0.0
26/01:30pm 29.5 30.1 21.4 61 5.4 E 20 41 11 22 1015.1 - 0.0
26/01:00pm 29.4 30.2 21.4 62 5.4 E 19 30 10 16 1015.4 - 0.0
26/12:30pm 28.5 29.3 21.3 65 4.8 SE 19 30 10 16 1015.9 - 0.0
26/12:00pm 28.3 29.0 21.6 67 4.5 ESE 20 30 11 16 1016.4 1016.3 0.0
26/11:30am 27.7 28.0 21.5 69 4.1 SE 22 33 12 18 1016.8 - 0.0
26/11:00am 27.6 29.2 22.1 72 3.7 ESE 17 28 9 15 1017.0 - 0.0
26/10:30am 26.5 27.9 22.6 79 2.6 ESE 19 33 10 18 1017.4 - 0.0
26/10:00am 25.5 26.9 22.6 84 2.0 ESE 19 33 10 18 1017.6 - 0.0
26/09:30am 24.6 26.0 22.5 88 1.4 ESE 19 30 10 16 1017.7 - 0.0
26/09:00am 23.6 24.9 22.4 93 0.8 ESE 19 32 10 17 1017.8 1017.7 0.0
26/08:30am 23.4 24.8 22.6 95 0.5 ESE 19 28 10 15 1017.4 - 0.0
26/08:00am 22.5 24.6 22.5 100 0.0 SE 15 28 8 15 1017.1 - 0.0
26/07:30am 21.6 24.0 21.6 100 0.0 SE 11 17 6 9 1016.7 - 0.0
26/07:00am 21.1 22.9 21.1 100 0.0 SE 13 19 7 10 1016.5 - 0.0
26/06:30am 21.0 23.1 21.0 100 0.0 SE 11 15 6 8 1016.5 - 0.0
26/06:00am 21.2 23.8 21.2 100 0.0 SE 9 17 5 9 1016.3 1016.2 0.0
26/05:30am 21.3 23.6 21.3 100 0.0 SE 11 15 6 8 1016.2 - 0.0
26/05:00am 21.6 23.6 21.6 100 0.0 ESE 13 19 7 10 1016.0 - 0.0
26/04:30am 21.7 24.2 21.7 100 0.0 SE 11 17 6 9 1016.0 - 0.0
26/04:00am 22.0 23.9 22.0 100 0.0 SE 15 22 8 12 1015.9 - 0.0
26/03:30am 21.9 23.7 21.9 100 0.0 ESE 15 26 8 14 1015.8 - 0.0
26/03:00am 21.8 24.0 21.8 100 0.0 ESE 13 20 7 11 1015.9 1015.8 0.0
26/02:30am 21.9 24.1 21.9 100 0.0 SE 13 19 7 10 1016.5 - 0.0
26/02:00am 22.0 24.6 22.0 100 0.0 SE 11 17 6 9 1016.9 - 0.0
26/01:30am 22.2 24.9 22.2 100 0.0 SE 11 15 6 8 1017.4 - 0.0
26/01:00am 22.3 25.4 22.1 99 0.1 SE 9 15 5 8 1017.5 - 0.0
26/12:30am 22.4 25.4 21.9 97 0.3 SE 9 11 5 6 1017.6 - 0.0
26/12:00am 22.8 25.8 22.0 95 0.5 ESE 9 13 5 7 1017.8 1017.7 0.0

Other Formats:

Comma delimited format used in spreadsheet applications
http://www.bom.gov.au/fwo/IDD60801/IDD60801.95146.axf

JavaScript Object Notation format (JSON) in row-major order
http://www.bom.gov.au/fwo/IDD60801/IDD60801.95146.json